sensor_id;sensor_type;location;lat;lon;timestamp;temperature;humidity
4312;DHT22;2169;49.086;9.284;2023-02-08T00:00:51;-2.00;56.60
4312;DHT22;2169;49.086;9.284;2023-02-08T00:03:19;-2.00;56.60
4312;DHT22;2169;49.086;9.284;2023-02-08T00:05:47;-2.00;56.70
4312;DHT22;2169;49.086;9.284;2023-02-08T00:08:14;-2.10;56.60
4312;DHT22;2169;49.086;9.284;2023-02-08T00:10:42;-2.10;56.70
4312;DHT22;2169;49.086;9.284;2023-02-08T00:13:08;-2.10;56.80
4312;DHT22;2169;49.086;9.284;2023-02-08T00:15:40;-2.20;56.70
4312;DHT22;2169;49.086;9.284;2023-02-08T00:18:06;-2.20;56.70
4312;DHT22;2169;49.086;9.284;2023-02-08T00:20:37;-2.20;56.80
4312;DHT22;2169;49.086;9.284;2023-02-08T00:23:04;-2.30;56.80
4312;DHT22;2169;49.086;9.284;2023-02-08T00:25:31;-2.30;56.80
4312;DHT22;2169;49.086;9.284;2023-02-08T00:27:58;-2.30;56.90
4312;DHT22;2169;49.086;9.284;2023-02-08T00:30:25;-2.40;56.80
4312;DHT22;2169;49.086;9.284;2023-02-08T00:32:52;-2.40;56.90
4312;DHT22;2169;49.086;9.284;2023-02-08T00:35:19;-2.40;56.90
4312;DHT22;2169;49.086;9.284;2023-02-08T00:37:47;-2.50;56.90
4312;DHT22;2169;49.086;9.284;2023-02-08T00:40:14;-2.50;56.90
4312;DHT22;2169;49.086;9.284;2023-02-08T00:42:41;-2.50;57.00
4312;DHT22;2169;49.086;9.284;2023-02-08T00:45:08;-2.60;57.00
4312;DHT22;2169;49.086;9.284;2023-02-08T00:47:35;-2.60;57.00
4312;DHT22;2169;49.086;9.284;2023-02-08T00:50:02;-2.60;57.10
4312;DHT22;2169;49.086;9.284;2023-02-08T00:52:28;-2.60;57.10
4312;DHT22;2169;49.086;9.284;2023-02-08T00:54:57;-2.70;57.00
4312;DHT22;2169;49.086;9.284;2023-02-08T00:57:24;-2.70;57.10
4312;DHT22;2169;49.086;9.284;2023-02-08T00:59:50;-2.70;57.10
4312;DHT22;2169;49.086;9.284;2023-02-08T01:02:17;-2.70;57.20
4312;DHT22;2169;49.086;9.284;2023-02-08T01:04:44;-2.70;57.30
4312;DHT22;2169;49.086;9.284;2023-02-08T01:07:11;-2.80;57.20
4312;DHT22;2169;49.086;9.284;2023-02-08T01:09:38;-2.80;57.20
4312;DHT22;2169;49.086;9.284;2023-02-08T01:12:06;-2.90;57.20
4312;DHT22;2169;49.086;9.284;2023-02-08T01:14:33;-2.80;57.40
4312;DHT22;2169;49.086;9.284;2023-02-08T01:17:00;-2.90;57.30
4312;DHT22;2169;49.086;9.284;2023-02-08T01:19:27;-2.90;57.40
4312;DHT22;2169;49.086;9.284;2023-02-08T01:21:53;-2.90;58.00
4312;DHT22;2169;49.086;9.284;2023-02-08T01:24:20;-2.90;57.40
4312;DHT22;2169;49.086;9.284;2023-02-08T01:26:47;-3.00;57.40
4312;DHT22;2169;49.086;9.284;2023-02-08T01:29:17;-3.00;57.40
4312;DHT22;2169;49.086;9.284;2023-02-08T01:31:44;-3.00;57.40
4312;DHT22;2169;49.086;9.284;2023-02-08T01:34:12;-3.00;57.50
4312;DHT22;2169;49.086;9.284;2023-02-08T01:36:39;-3.00;57.50
4312;DHT22;2169;49.086;9.284;2023-02-08T01:39:07;-3.10;57.40
4312;DHT22;2169;49.086;9.284;2023-02-08T01:41:38;-3.10;57.50
4312;DHT22;2169;49.086;9.284;2023-02-08T01:44:08;-3.10;57.50
4312;DHT22;2169;49.086;9.284;2023-02-08T01:46:55;-3.10;57.50
4312;DHT22;2169;49.086;9.284;2023-02-08T01:49:24;-3.20;57.50
4312;DHT22;2169;49.086;9.284;2023-02-08T01:51:55;-3.20;57.50
4312;DHT22;2169;49.086;9.284;2023-02-08T01:54:27;-3.20;57.50
4312;DHT22;2169;49.086;9.284;2023-02-08T01:56:56;-3.20;57.60
4312;DHT22;2169;49.086;9.284;2023-02-08T01:59:24;-3.20;57.60
4312;DHT22;2169;49.086;9.284;2023-02-08T02:01:55;-3.30;57.50
4312;DHT22;2169;49.086;9.284;2023-02-08T02:04:24;-3.30;57.60
4312;DHT22;2169;49.086;9.284;2023-02-08T02:06:55;-3.40;57.50
4312;DHT22;2169;49.086;9.284;2023-02-08T02:09:26;-3.40;57.60
4312;DHT22;2169;49.086;9.284;2023-02-08T02:11:55;-3.40;57.60
4312;DHT22;2169;49.086;9.284;2023-02-08T02:14:23;-3.40;57.60
4312;DHT22;2169;49.086;9.284;2023-02-08T02:16:50;-3.40;57.60
4312;DHT22;2169;49.086;9.284;2023-02-08T02:19:26;-3.50;57.60
4312;DHT22;2169;49.086;9.284;2023-02-08T02:22:04;-3.50;57.70
4312;DHT22;2169;49.086;9.284;2023-02-08T02:24:57;-3.50;57.70
4312;DHT22;2169;49.086;9.284;2023-02-08T02:27:33;-3.50;57.70
4312;DHT22;2169;49.086;9.284;2023-02-08T02:30:23;-3.50;57.70
4312;DHT22;2169;49.086;9.284;2023-02-08T02:33:02;-3.60;57.70
4312;DHT22;2169;49.086;9.284;2023-02-08T02:35:39;-3.60;57.80
4312;DHT22;2169;49.086;9.284;2023-02-08T02:38:13;-3.60;57.80
4312;DHT22;2169;49.086;9.284;2023-02-08T02:40:51;-3.70;57.80
4312;DHT22;2169;49.086;9.284;2023-02-08T02:43:25;-3.70;57.80
4312;DHT22;2169;49.086;9.284;2023-02-08T02:46:13;-3.70;57.80
4312;DHT22;2169;49.086;9.284;2023-02-08T02:48:49;-3.70;57.90
4312;DHT22;2169;49.086;9.284;2023-02-08T02:51:20;-3.80;57.80
4312;DHT22;2169;49.086;9.284;2023-02-08T02:53:54;-3.80;57.90
4312;DHT22;2169;49.086;9.284;2023-02-08T02:56:27;-3.80;57.90
4312;DHT22;2169;49.086;9.284;2023-02-08T02:58:58;-3.80;57.90
4312;DHT22;2169;49.086;9.284;2023-02-08T03:01:27;-3.90;57.90
4312;DHT22;2169;49.086;9.284;2023-02-08T03:03:55;-3.90;58.00
4312;DHT22;2169;49.086;9.284;2023-02-08T03:06:31;-3.90;58.00
4312;DHT22;2169;49.086;9.284;2023-02-08T03:09:12;-3.90;58.10
4312;DHT22;2169;49.086;9.284;2023-02-08T03:11:45;-3.90;58.10
4312;DHT22;2169;49.086;9.284;2023-02-08T03:14:31;-3.90;58.10
4312;DHT22;2169;49.086;9.284;2023-02-08T03:17:16;-3.90;58.20
4312;DHT22;2169;49.086;9.284;2023-02-08T03:19:53;-4.00;58.10
4312;DHT22;2169;49.086;9.284;2023-02-08T03:22:27;-4.00;58.20
4312;DHT22;2169;49.086;9.284;2023-02-08T03:25:03;-4.00;58.20
4312;DHT22;2169;49.086;9.284;2023-02-08T03:27:34;-4.00;58.20
4312;DHT22;2169;49.086;9.284;2023-02-08T03:30:08;-4.00;58.30
4312;DHT22;2169;49.086;9.284;2023-02-08T03:32:40;-4.10;58.20
4312;DHT22;2169;49.086;9.284;2023-02-08T03:35:24;-4.00;58.40
4312;DHT22;2169;49.086;9.284;2023-02-08T03:37:56;-4.00;58.40
4312;DHT22;2169;49.086;9.284;2023-02-08T03:40:27;-4.10;58.30
4312;DHT22;2169;49.086;9.284;2023-02-08T03:42:57;-4.10;58.30
4312;DHT22;2169;49.086;9.284;2023-02-08T03:45:28;-4.10;58.40
4312;DHT22;2169;49.086;9.284;2023-02-08T03:48:02;-4.10;58.40
4312;DHT22;2169;49.086;9.284;2023-02-08T03:50:33;-4.10;58.40
4312;DHT22;2169;49.086;9.284;2023-02-08T03:53:03;-4.20;58.40
4312;DHT22;2169;49.086;9.284;2023-02-08T03:55:33;-4.20;58.40
4312;DHT22;2169;49.086;9.284;2023-02-08T03:58:05;-4.20;58.50
4312;DHT22;2169;49.086;9.284;2023-02-08T04:00:37;-4.20;58.50
4312;DHT22;2169;49.086;9.284;2023-02-08T04:03:10;-4.20;58.50
4312;DHT22;2169;49.086;9.284;2023-02-08T04:05:40;-4.30;58.50
4312;DHT22;2169;49.086;9.284;2023-02-08T04:08:07;-4.30;58.50
4312;DHT22;2169;49.086;9.284;2023-02-08T04:10:34;-4.30;58.50
4312;DHT22;2169;49.086;9.284;2023-02-08T04:13:01;-4.30;58.60
4312;DHT22;2169;49.086;9.284;2023-02-08T04:15:30;-4.30;58.60
4312;DHT22;2169;49.086;9.284;2023-02-08T04:17:57;-4.30;58.60
4312;DHT22;2169;49.086;9.284;2023-02-08T04:20:24;-4.30;58.70
4312;DHT22;2169;49.086;9.284;2023-02-08T04:22:52;-4.40;58.60
4312;DHT22;2169;49.086;9.284;2023-02-08T04:25:19;-4.30;58.80
4312;DHT22;2169;49.086;9.284;2023-02-08T04:27:46;-4.40;58.70
4312;DHT22;2169;49.086;9.284;2023-02-08T04:30:13;-4.40;58.70
4312;DHT22;2169;49.086;9.284;2023-02-08T04:32:40;-4.40;58.70
4312;DHT22;2169;49.086;9.284;2023-02-08T04:35:07;-4.40;58.80
4312;DHT22;2169;49.086;9.284;2023-02-08T04:37:34;-4.40;58.80
4312;DHT22;2169;49.086;9.284;2023-02-08T04:40:03;-4.50;58.70
4312;DHT22;2169;49.086;9.284;2023-02-08T04:42:30;-4.40;58.90
4312;DHT22;2169;49.086;9.284;2023-02-08T04:44:56;-4.50;58.80
4312;DHT22;2169;49.086;9.284;2023-02-08T04:47:23;-4.50;58.90
4312;DHT22;2169;49.086;9.284;2023-02-08T04:49:50;-4.50;58.90
4312;DHT22;2169;49.086;9.284;2023-02-08T04:52:17;-4.50;58.90
4312;DHT22;2169;49.086;9.284;2023-02-08T04:54:44;-4.60;58.90
4312;DHT22;2169;49.086;9.284;2023-02-08T04:57:13;-4.60;58.90
4312;DHT22;2169;49.086;9.284;2023-02-08T04:59:41;-4.60;59.00
4312;DHT22;2169;49.086;9.284;2023-02-08T05:02:08;-4.60;59.00
4312;DHT22;2169;49.086;9.284;2023-02-08T05:04:35;-4.60;59.00
4312;DHT22;2169;49.086;9.284;2023-02-08T05:07:02;-4.60;59.00
4312;DHT22;2169;49.086;9.284;2023-02-08T05:09:29;-4.70;59.00
4312;DHT22;2169;49.086;9.284;2023-02-08T05:11:55;-4.70;59.00
4312;DHT22;2169;49.086;9.284;2023-02-08T05:14:25;-4.70;59.00
4312;DHT22;2169;49.086;9.284;2023-02-08T05:16:52;-4.70;59.10
4312;DHT22;2169;49.086;9.284;2023-02-08T05:19:19;-4.70;59.10
4312;DHT22;2169;49.086;9.284;2023-02-08T05:21:46;-4.70;59.10
4312;DHT22;2169;49.086;9.284;2023-02-08T05:24:13;-4.70;59.10
4312;DHT22;2169;49.086;9.284;2023-02-08T05:26:40;-4.70;59.20
4312;DHT22;2169;49.086;9.284;2023-02-08T05:29:07;-4.80;59.10
4312;DHT22;2169;49.086;9.284;2023-02-08T05:31:35;-4.80;59.10
4312;DHT22;2169;49.086;9.284;2023-02-08T05:34:03;-4.80;59.10
4312;DHT22;2169;49.086;9.284;2023-02-08T05:36:30;-4.80;59.20
4312;DHT22;2169;49.086;9.284;2023-02-08T05:38:56;-4.80;59.20
4312;DHT22;2169;49.086;9.284;2023-02-08T05:41:23;-4.90;59.10
4312;DHT22;2169;49.086;9.284;2023-02-08T05:43:50;-4.90;59.20
4312;DHT22;2169;49.086;9.284;2023-02-08T05:46:17;-4.90;59.20
4312;DHT22;2169;49.086;9.284;2023-02-08T05:48:45;-4.90;59.20
4312;DHT22;2169;49.086;9.284;2023-02-08T05:51:12;-4.90;59.30
4312;DHT22;2169;49.086;9.284;2023-02-08T05:53:39;-4.90;59.30
4312;DHT22;2169;49.086;9.284;2023-02-08T05:56:06;-4.90;59.30
4312;DHT22;2169;49.086;9.284;2023-02-08T05:58:33;-4.90;59.30
4312;DHT22;2169;49.086;9.284;2023-02-08T06:01:00;-5.00;59.90
4312;DHT22;2169;49.086;9.284;2023-02-08T06:03:27;-5.00;59.30
4312;DHT22;2169;49.086;9.284;2023-02-08T06:05:59;-5.00;59.30
4312;DHT22;2169;49.086;9.284;2023-02-08T06:08:26;-5.00;59.30
4312;DHT22;2169;49.086;9.284;2023-02-08T06:10:53;-5.00;59.30
4312;DHT22;2169;49.086;9.284;2023-02-08T06:13:20;-5.00;59.40
4312;DHT22;2169;49.086;9.284;2023-02-08T06:15:47;-5.10;59.30
4312;DHT22;2169;49.086;9.284;2023-02-08T06:18:14;-5.10;59.30
4312;DHT22;2169;49.086;9.284;2023-02-08T06:20:41;-5.10;59.40
4312;DHT22;2169;49.086;9.284;2023-02-08T06:23:09;-5.10;59.40
4312;DHT22;2169;49.086;9.284;2023-02-08T06:25:36;-5.10;59.40
4312;DHT22;2169;49.086;9.284;2023-02-08T06:28:03;-5.10;59.40
4312;DHT22;2169;49.086;9.284;2023-02-08T06:30:31;-5.10;59.50
4312;DHT22;2169;49.086;9.284;2023-02-08T06:32:58;-5.10;59.40
4312;DHT22;2169;49.086;9.284;2023-02-08T06:35:24;-5.20;59.40
4312;DHT22;2169;49.086;9.284;2023-02-08T06:37:51;-5.10;59.50
4312;DHT22;2169;49.086;9.284;2023-02-08T06:40:20;-5.20;59.40
4312;DHT22;2169;49.086;9.284;2023-02-08T06:42:47;-5.20;59.50
4312;DHT22;2169;49.086;9.284;2023-02-08T06:45:15;-5.20;59.50
4312;DHT22;2169;49.086;9.284;2023-02-08T06:47:41;-5.20;59.50
4312;DHT22;2169;49.086;9.284;2023-02-08T06:50:09;-5.20;59.50
4312;DHT22;2169;49.086;9.284;2023-02-08T06:52:36;-5.30;59.50
4312;DHT22;2169;49.086;9.284;2023-02-08T06:55:04;-5.20;59.60
4312;DHT22;2169;49.086;9.284;2023-02-08T06:57:32;-5.30;59.50
4312;DHT22;2169;49.086;9.284;2023-02-08T06:59:59;-5.20;60.30
4312;DHT22;2169;49.086;9.284;2023-02-08T07:02:26;-5.20;59.70
4312;DHT22;2169;49.086;9.284;2023-02-08T07:04:53;-5.20;59.70
4312;DHT22;2169;49.086;9.284;2023-02-08T07:07:21;-5.20;59.70
4312;DHT22;2169;49.086;9.284;2023-02-08T07:09:48;-5.20;59.80
4312;DHT22;2169;49.086;9.284;2023-02-08T07:12:16;-5.30;59.60
4312;DHT22;2169;49.086;9.284;2023-02-08T07:14:44;-5.30;59.70
4312;DHT22;2169;49.086;9.284;2023-02-08T07:17:12;-5.20;59.80
4312;DHT22;2169;49.086;9.284;2023-02-08T07:19:39;-5.20;59.90
4312;DHT22;2169;49.086;9.284;2023-02-08T07:22:06;-5.20;59.90
4312;DHT22;2169;49.086;9.284;2023-02-08T07:24:34;-5.20;59.90
4312;DHT22;2169;49.086;9.284;2023-02-08T07:27:02;-5.20;59.90
4312;DHT22;2169;49.086;9.284;2023-02-08T07:29:29;-5.20;59.90
4312;DHT22;2169;49.086;9.284;2023-02-08T07:31:59;-5.20;60.00
4312;DHT22;2169;49.086;9.284;2023-02-08T07:34:28;-5.20;60.00
4312;DHT22;2169;49.086;9.284;2023-02-08T07:36:55;-5.20;60.00
4312;DHT22;2169;49.086;9.284;2023-02-08T07:39:23;-5.10;60.10
4312;DHT22;2169;49.086;9.284;2023-02-08T07:41:50;-5.20;60.10
4312;DHT22;2169;49.086;9.284;2023-02-08T07:44:17;-5.10;60.20
4312;DHT22;2169;49.086;9.284;2023-02-08T07:46:44;-5.10;60.20
4312;DHT22;2169;49.086;9.284;2023-02-08T07:49:13;-5.10;60.20
4312;DHT22;2169;49.086;9.284;2023-02-08T07:51:40;-5.10;60.20
4312;DHT22;2169;49.086;9.284;2023-02-08T07:54:07;-5.00;60.40
4312;DHT22;2169;49.086;9.284;2023-02-08T07:56:35;-5.00;60.40
4312;DHT22;2169;49.086;9.284;2023-02-08T07:59:02;-5.00;60.40
4312;DHT22;2169;49.086;9.284;2023-02-08T08:01:29;-4.90;60.50
4312;DHT22;2169;49.086;9.284;2023-02-08T08:03:57;-4.90;60.60
4312;DHT22;2169;49.086;9.284;2023-02-08T08:06:26;-4.90;60.60
4312;DHT22;2169;49.086;9.284;2023-02-08T08:08:53;-4.80;61.30
4312;DHT22;2169;49.086;9.284;2023-02-08T08:11:20;-4.80;60.60
4312;DHT22;2169;49.086;9.284;2023-02-08T08:13:47;-4.70;60.80
4312;DHT22;2169;49.086;9.284;2023-02-08T08:16:14;-4.70;60.80
4312;DHT22;2169;49.086;9.284;2023-02-08T08:18:41;-4.70;60.80
4312;DHT22;2169;49.086;9.284;2023-02-08T08:21:09;-4.60;60.90
4312;DHT22;2169;49.086;9.284;2023-02-08T08:23:38;-4.50;61.00
4312;DHT22;2169;49.086;9.284;2023-02-08T08:26:06;-4.50;61.00
4312;DHT22;2169;49.086;9.284;2023-02-08T08:28:34;-4.40;61.20
4312;DHT22;2169;49.086;9.284;2023-02-08T08:31:01;-4.40;61.10
4312;DHT22;2169;49.086;9.284;2023-02-08T08:33:28;-4.30;61.20
4312;DHT22;2169;49.086;9.284;2023-02-08T08:35:55;-4.30;61.20
4312;DHT22;2169;49.086;9.284;2023-02-08T08:38:22;-4.20;61.30
4312;DHT22;2169;49.086;9.284;2023-02-08T08:40:50;-4.10;61.40
4312;DHT22;2169;49.086;9.284;2023-02-08T08:43:17;-4.10;61.40
4312;DHT22;2169;49.086;9.284;2023-02-08T08:45:45;-4.00;61.40
4312;DHT22;2169;49.086;9.284;2023-02-08T08:48:14;-3.90;61.50
4312;DHT22;2169;49.086;9.284;2023-02-08T08:50:40;-3.80;61.70
4312;DHT22;2169;49.086;9.284;2023-02-08T08:53:08;-3.70;61.90
4312;DHT22;2169;49.086;9.284;2023-02-08T08:55:35;-3.60;62.10
4312;DHT22;2169;49.086;9.284;2023-02-08T08:58:03;-3.50;62.30
4312;DHT22;2169;49.086;9.284;2023-02-08T09:00:30;-3.40;62.50
4312;DHT22;2169;49.086;9.284;2023-02-08T09:02:57;-3.20;62.80
4312;DHT22;2169;49.086;9.284;2023-02-08T09:05:24;-3.10;63.00
4312;DHT22;2169;49.086;9.284;2023-02-08T09:07:51;-2.90;63.20
4312;DHT22;2169;49.086;9.284;2023-02-08T09:10:17;-2.70;63.40
4312;DHT22;2169;49.086;9.284;2023-02-08T09:12:44;-2.50;63.60
4312;DHT22;2169;49.086;9.284;2023-02-08T09:15:13;-2.30;63.80
4312;DHT22;2169;49.086;9.284;2023-02-08T09:17:40;-2.10;63.80
4312;DHT22;2169;49.086;9.284;2023-02-08T09:20:09;-1.90;63.80
4312;DHT22;2169;49.086;9.284;2023-02-08T09:22:36;-1.70;63.90
4312;DHT22;2169;49.086;9.284;2023-02-08T09:25:04;-1.50;63.80
4312;DHT22;2169;49.086;9.284;2023-02-08T09:27:32;-1.30;63.90
4312;DHT22;2169;49.086;9.284;2023-02-08T09:29:59;-1.10;64.50
4312;DHT22;2169;49.086;9.284;2023-02-08T09:32:30;-0.90;63.90
4312;DHT22;2169;49.086;9.284;2023-02-08T09:34:58;-0.70;63.80
4312;DHT22;2169;49.086;9.284;2023-02-08T09:37:26;-0.50;63.70
4312;DHT22;2169;49.086;9.284;2023-02-08T09:39:53;-0.30;63.60
4312;DHT22;2169;49.086;9.284;2023-02-08T09:42:30;-0.20;63.30
4312;DHT22;2169;49.086;9.284;2023-02-08T09:45:13;0.00;63.30
4312;DHT22;2169;49.086;9.284;2023-02-08T09:47:50;0.20;63.10
4312;DHT22;2169;49.086;9.284;2023-02-08T09:50:25;0.30;62.80
4312;DHT22;2169;49.086;9.284;2023-02-08T09:52:58;0.50;62.60
4312;DHT22;2169;49.086;9.284;2023-02-08T09:55:33;0.60;62.40
4312;DHT22;2169;49.086;9.284;2023-02-08T09:58:04;0.80;62.10
4312;DHT22;2169;49.086;9.284;2023-02-08T10:00:34;0.90;61.80
4312;DHT22;2169;49.086;9.284;2023-02-08T10:03:07;1.00;61.40
4312;DHT22;2169;49.086;9.284;2023-02-08T10:05:44;1.10;61.10
4312;DHT22;2169;49.086;9.284;2023-02-08T10:08:12;1.20;60.80
4312;DHT22;2169;49.086;9.284;2023-02-08T10:10:46;1.40;60.60
4312;DHT22;2169;49.086;9.284;2023-02-08T10:13:27;1.50;60.40
4312;DHT22;2169;49.086;9.284;2023-02-08T10:16:05;1.60;60.10
4312;DHT22;2169;49.086;9.284;2023-02-08T10:18:43;1.70;59.80
4312;DHT22;2169;49.086;9.284;2023-02-08T10:21:21;1.80;59.50
4312;DHT22;2169;49.086;9.284;2023-02-08T10:24:11;1.90;59.20
4312;DHT22;2169;49.086;9.284;2023-02-08T10:26:44;2.00;59.00
4312;DHT22;2169;49.086;9.284;2023-02-08T10:29:23;2.20;58.90
4312;DHT22;2169;49.086;9.284;2023-02-08T10:32:05;2.20;58.60
4312;DHT22;2169;49.086;9.284;2023-02-08T10:34:42;2.30;58.40
4312;DHT22;2169;49.086;9.284;2023-02-08T10:37:13;2.40;58.00
4312;DHT22;2169;49.086;9.284;2023-02-08T10:39:40;2.50;57.70
4312;DHT22;2169;49.086;9.284;2023-02-08T10:42:13;2.60;57.70
4312;DHT22;2169;49.086;9.284;2023-02-08T10:44:56;2.60;57.30
4312;DHT22;2169;49.086;9.284;2023-02-08T10:47:35;2.70;56.90
4312;DHT22;2169;49.086;9.284;2023-02-08T10:50:14;2.80;56.40
4312;DHT22;2169;49.086;9.284;2023-02-08T10:52:44;2.90;56.10
4312;DHT22;2169;49.086;9.284;2023-02-08T10:55:13;2.90;55.80
4312;DHT22;2169;49.086;9.284;2023-02-08T10:57:41;3.00;55.50
4312;DHT22;2169;49.086;9.284;2023-02-08T11:00:12;3.10;55.40
4312;DHT22;2169;49.086;9.284;2023-02-08T11:02:41;3.10;55.00
4312;DHT22;2169;49.086;9.284;2023-02-08T11:05:14;3.20;54.70
4312;DHT22;2169;49.086;9.284;2023-02-08T11:07:42;3.30;54.50
4312;DHT22;2169;49.086;9.284;2023-02-08T11:10:23;3.30;54.30
4312;DHT22;2169;49.086;9.284;2023-02-08T11:12:56;3.40;53.70
4312;DHT22;2169;49.086;9.284;2023-02-08T11:15:26;3.40;53.50
4312;DHT22;2169;49.086;9.284;2023-02-08T11:17:57;3.50;53.50
4312;DHT22;2169;49.086;9.284;2023-02-08T11:20:31;3.50;53.20
4312;DHT22;2169;49.086;9.284;2023-02-08T11:23:01;3.50;53.10
4312;DHT22;2169;49.086;9.284;2023-02-08T11:25:35;3.60;53.40
4312;DHT22;2169;49.086;9.284;2023-02-08T11:28:03;3.60;52.80
4312;DHT22;2169;49.086;9.284;2023-02-08T11:30:31;3.70;52.60
4312;DHT22;2169;49.086;9.284;2023-02-08T11:33:22;3.70;52.20
4312;DHT22;2169;49.086;9.284;2023-02-08T11:36:00;3.80;51.90
4312;DHT22;2169;49.086;9.284;2023-02-08T11:38:29;3.80;51.70
4312;DHT22;2169;49.086;9.284;2023-02-08T11:40:58;3.80;51.40
4312;DHT22;2169;49.086;9.284;2023-02-08T11:43:27;3.90;51.20
4312;DHT22;2169;49.086;9.284;2023-02-08T11:45:56;3.90;51.10
4312;DHT22;2169;49.086;9.284;2023-02-08T11:48:26;4.00;51.20
4312;DHT22;2169;49.086;9.284;2023-02-08T11:50:58;4.00;51.10
4312;DHT22;2169;49.086;9.284;2023-02-08T11:53:28;4.10;51.00
4312;DHT22;2169;49.086;9.284;2023-02-08T11:56:15;4.10;50.70
4312;DHT22;2169;49.086;9.284;2023-02-08T11:59:01;4.20;50.70
4312;DHT22;2169;49.086;9.284;2023-02-08T12:01:31;4.20;50.50
4312;DHT22;2169;49.086;9.284;2023-02-08T12:04:00;4.20;50.50
4312;DHT22;2169;49.086;9.284;2023-02-08T12:07:12;4.30;50.50
4312;DHT22;2169;49.086;9.284;2023-02-08T12:10:15;4.40;50.50
4312;DHT22;2169;49.086;9.284;2023-02-08T12:12:56;4.40;50.30
4312;DHT22;2169;49.086;9.284;2023-02-08T12:15:34;4.40;50.30
4312;DHT22;2169;49.086;9.284;2023-02-08T12:18:29;4.40;50.30
4312;DHT22;2169;49.086;9.284;2023-02-08T12:21:04;4.50;50.30
4312;DHT22;2169;49.086;9.284;2023-02-08T12:23:49;4.50;50.20
4312;DHT22;2169;49.086;9.284;2023-02-08T12:26:34;4.60;50.10
4312;DHT22;2169;49.086;9.284;2023-02-08T12:29:16;4.60;50.00
4312;DHT22;2169;49.086;9.284;2023-02-08T12:31:58;4.60;49.70
4312;DHT22;2169;49.086;9.284;2023-02-08T12:34:44;4.60;49.50
4312;DHT22;2169;49.086;9.284;2023-02-08T12:37:20;4.70;49.50
4312;DHT22;2169;49.086;9.284;2023-02-08T12:40:20;4.70;49.10
4312;DHT22;2169;49.086;9.284;2023-02-08T12:43:11;4.70;49.10
4312;DHT22;2169;49.086;9.284;2023-02-08T12:48:55;4.80;49.20
4312;DHT22;2169;49.086;9.284;2023-02-08T12:51:35;4.80;48.90
4312;DHT22;2169;49.086;9.284;2023-02-08T12:54:08;4.80;48.70
4312;DHT22;2169;49.086;9.284;2023-02-08T12:56:41;4.80;48.70
4312;DHT22;2169;49.086;9.284;2023-02-08T12:59:18;4.90;48.90
4312;DHT22;2169;49.086;9.284;2023-02-08T13:01:48;4.90;48.90
4312;DHT22;2169;49.086;9.284;2023-02-08T13:04:21;4.90;48.90
4312;DHT22;2169;49.086;9.284;2023-02-08T13:06:53;5.00;48.70
4312;DHT22;2169;49.086;9.284;2023-02-08T13:09:29;5.00;48.70
4312;DHT22;2169;49.086;9.284;2023-02-08T13:12:10;5.00;48.70
4312;DHT22;2169;49.086;9.284;2023-02-08T13:14:44;5.00;48.60
4312;DHT22;2169;49.086;9.284;2023-02-08T13:17:15;5.00;48.40
4312;DHT22;2169;49.086;9.284;2023-02-08T13:19:54;5.10;48.40
4312;DHT22;2169;49.086;9.284;2023-02-08T13:22:23;5.10;48.50
4312;DHT22;2169;49.086;9.284;2023-02-08T13:24:51;5.10;48.30
4312;DHT22;2169;49.086;9.284;2023-02-08T13:27:21;5.10;47.80
4312;DHT22;2169;49.086;9.284;2023-02-08T13:29:50;5.10;47.20
4312;DHT22;2169;49.086;9.284;2023-02-08T13:32:22;5.10;46.90
4312;DHT22;2169;49.086;9.284;2023-02-08T13:34:57;5.00;46.70
4312;DHT22;2169;49.086;9.284;2023-02-08T13:37:28;5.10;46.80
4312;DHT22;2169;49.086;9.284;2023-02-08T13:40:01;5.10;46.80
4312;DHT22;2169;49.086;9.284;2023-02-08T13:42:36;5.00;46.80
4312;DHT22;2169;49.086;9.284;2023-02-08T13:45:05;5.10;46.90
4312;DHT22;2169;49.086;9.284;2023-02-08T13:47:41;5.10;46.90
4312;DHT22;2169;49.086;9.284;2023-02-08T13:50:38;5.10;46.70
4312;DHT22;2169;49.086;9.284;2023-02-08T13:53:05;5.10;46.60
4312;DHT22;2169;49.086;9.284;2023-02-08T13:55:56;5.10;46.50
4312;DHT22;2169;49.086;9.284;2023-02-08T13:58:37;5.10;46.40
4312;DHT22;2169;49.086;9.284;2023-02-08T14:01:23;5.10;46.40
4312;DHT22;2169;49.086;9.284;2023-02-08T14:04:15;5.00;46.30
4312;DHT22;2169;49.086;9.284;2023-02-08T14:06:45;5.10;46.30
4312;DHT22;2169;49.086;9.284;2023-02-08T14:09:20;5.10;46.40
4312;DHT22;2169;49.086;9.284;2023-02-08T14:11:50;5.10;46.20
4312;DHT22;2169;49.086;9.284;2023-02-08T14:14:23;5.10;46.10
4312;DHT22;2169;49.086;9.284;2023-02-08T14:17:10;5.10;46.10
4312;DHT22;2169;49.086;9.284;2023-02-08T14:19:42;5.00;45.90
4312;DHT22;2169;49.086;9.284;2023-02-08T14:22:15;5.00;46.00
4312;DHT22;2169;49.086;9.284;2023-02-08T14:24:45;5.00;46.10
4312;DHT22;2169;49.086;9.284;2023-02-08T14:27:19;5.00;45.90
4312;DHT22;2169;49.086;9.284;2023-02-08T14:29:57;5.00;46.00
4312;DHT22;2169;49.086;9.284;2023-02-08T14:32:28;5.00;45.90
4312;DHT22;2169;49.086;9.284;2023-02-08T14:35:01;5.00;46.00
4312;DHT22;2169;49.086;9.284;2023-02-08T14:37:30;5.00;45.90
4312;DHT22;2169;49.086;9.284;2023-02-08T14:40:30;4.90;45.90
4312;DHT22;2169;49.086;9.284;2023-02-08T14:42:58;4.90;45.80
4312;DHT22;2169;49.086;9.284;2023-02-08T14:45:29;4.90;45.70
4312;DHT22;2169;49.086;9.284;2023-02-08T14:48:01;4.90;45.80
4312;DHT22;2169;49.086;9.284;2023-02-08T14:50:38;4.90;45.90
4312;DHT22;2169;49.086;9.284;2023-02-08T14:53:24;4.90;45.80
4312;DHT22;2169;49.086;9.284;2023-02-08T14:55:55;4.90;46.20
4312;DHT22;2169;49.086;9.284;2023-02-08T14:58:29;4.90;45.60
4312;DHT22;2169;49.086;9.284;2023-02-08T15:01:00;4.90;45.60
4312;DHT22;2169;49.086;9.284;2023-02-08T15:03:30;4.90;45.60
4312;DHT22;2169;49.086;9.284;2023-02-08T15:06:12;4.90;45.70
4312;DHT22;2169;49.086;9.284;2023-02-08T15:08:48;4.90;45.80
4312;DHT22;2169;49.086;9.284;2023-02-08T15:11:20;4.90;45.90
4312;DHT22;2169;49.086;9.284;2023-02-08T15:13:49;4.90;45.80
4312;DHT22;2169;49.086;9.284;2023-02-08T15:16:18;4.90;46.30
4312;DHT22;2169;49.086;9.284;2023-02-08T15:18:45;4.80;45.60
4312;DHT22;2169;49.086;9.284;2023-02-08T15:21:16;4.80;45.70
4312;DHT22;2169;49.086;9.284;2023-02-08T15:23:57;4.80;45.90
4312;DHT22;2169;49.086;9.284;2023-02-08T15:26:24;4.80;45.80
4312;DHT22;2169;49.086;9.284;2023-02-08T15:28:52;4.80;45.90
4312;DHT22;2169;49.086;9.284;2023-02-08T15:31:25;4.70;45.90
4312;DHT22;2169;49.086;9.284;2023-02-08T15:33:56;4.80;46.10
4312;DHT22;2169;49.086;9.284;2023-02-08T15:36:27;4.70;46.10
4312;DHT22;2169;49.086;9.284;2023-02-08T15:38:57;4.70;46.20
4312;DHT22;2169;49.086;9.284;2023-02-08T15:41:50;4.60;46.20
4312;DHT22;2169;49.086;9.284;2023-02-08T15:44:24;4.60;46.30
4312;DHT22;2169;49.086;9.284;2023-02-08T15:47:25;4.60;46.30
4312;DHT22;2169;49.086;9.284;2023-02-08T15:49:53;4.60;46.50
4312;DHT22;2169;49.086;9.284;2023-02-08T15:52:23;4.50;46.50
4312;DHT22;2169;49.086;9.284;2023-02-08T15:54:50;4.50;46.60
4312;DHT22;2169;49.086;9.284;2023-02-08T15:57:25;4.50;46.60
4312;DHT22;2169;49.086;9.284;2023-02-08T15:59:55;4.50;46.60
4312;DHT22;2169;49.086;9.284;2023-02-08T16:02:26;4.40;46.60
4312;DHT22;2169;49.086;9.284;2023-02-08T16:04:54;4.40;46.80
4312;DHT22;2169;49.086;9.284;2023-02-08T16:07:26;4.40;46.90
4312;DHT22;2169;49.086;9.284;2023-02-08T16:09:56;4.40;46.90
4312;DHT22;2169;49.086;9.284;2023-02-08T16:12:25;4.30;46.90
4312;DHT22;2169;49.086;9.284;2023-02-08T16:14:53;4.30;47.00
4312;DHT22;2169;49.086;9.284;2023-02-08T16:17:34;4.30;47.10
4312;DHT22;2169;49.086;9.284;2023-02-08T16:22:54;4.20;47.20
4312;DHT22;2169;49.086;9.284;2023-02-08T16:25:22;4.20;47.20
4312;DHT22;2169;49.086;9.284;2023-02-08T16:27:49;4.10;47.20
4312;DHT22;2169;49.086;9.284;2023-02-08T16:30:18;4.10;47.20
4312;DHT22;2169;49.086;9.284;2023-02-08T16:32:47;4.10;47.30
4312;DHT22;2169;49.086;9.284;2023-02-08T16:35:20;4.00;47.20
4312;DHT22;2169;49.086;9.284;2023-02-08T16:37:52;4.00;47.20
4312;DHT22;2169;49.086;9.284;2023-02-08T16:40:43;3.90;47.20